Terminal Aerodrome Forecast
Issued by NWS

Home | Current Version | Previous Version | Text Only | Print | Product List | Glossary On
Versions: 1 2 3 4 5 6 7 8 9 10 11 12 13
000
FTUS42 KMLB 161700
TAFSFB
TAF
KSFB 161735Z 1618/1718 28008KT P6SM VCTS SCT040CB SCT150 BKN250
      TEMPO 1618/1621 3SM TSRA BKN035CB OVC050
     FM170000 26004KT P6SM SCT080 OVC150
     FM171400 26010KT P6SM FEW020 SCT120 SCT250=

USA.gov is the U.S. government's official web portal to all federal, state and local government web resources and services.